Prentice, WI (54556)

9:00 PM CST on February 07, 2016 (GMT -0600)
APRSWXNET | | Change Station
CLOSE
Current Station
Personal Weather Station
Location: Phillips, WI
Elevation: 1541 ft
Nearby Weather Stations

Elev 1541 ft 45.64 °N, 90.34 °W | Updated 24 minutes ago

Snow
Snow
32 °F
Feels Like 32 °F
N
0
Wind Variable Wind from North
Gusts 0.0 mph

Today
High -- | Low -- °F
--% Chance of Precip.
Yesterday
High -- | Low -- °F
Precip. -- in
Pressure 29.51 in
Visibility 2.0 miles
Clouds Overcast 600 ft
Windchill 32 °F
Dew Point 30 °F
Humidity 94%
Rainfall in
Snow Depth Not available.
7:15 AM 5:15 PM
Waning Crescent, 0% visible
METAR KPBH 080235Z AUTO 23005KT 2SM -SN OVC006 00/00 A2951 RMK AO2 P0001 T10031005
Pressure 29.51 in
Visibility 2.0 miles
Clouds Overcast 600 ft
Windchill 32 °F
Dew Point 30 °F
Humidity 94%
Rainfall in
Snow Depth Not available.
7:15 AM 5:15 PM
Waning Crescent, 0% visible
METAR KPBH 080235Z AUTO 23005KT 2SM -SN OVC006 00/00 A2951 RMK AO2 P0001 T10031005

10-Day Weather Forecast

Almanac

Astronomy

Feb. 07, 2016 Rise Set
Actual Time
Civil Twilight
Nautical Twilight
Astronomical Twilight
Moon
Length of Visible Light
Length of Day
Tomorrow will be .
, % of the Moon is Illuminated

Today's Extremes

State Highs State Lows

Community

WunderPhotos

Upload Photos

1,891,373 photos uploaded!

WunderBlog® & News

Nearby

Air Quality

  Air Quality AQ Index Pollutant
Not available.

Snow Depth

Station Depth Elevation

Earthquake Activity

City Distance Mag. Time & Date
Minimum magnitude displayed is 2.5.

Coastal Water Temperatures

Place Temperature

Stations

Nearby Weather Stations

Station Location Temp. Windchill Dew Point Humidity Wind Precip. Elev Updated Type
                   

Watches & Warnings

There are currently no watches in effect.